createdAt,value
2023-04-18T00:01:40.287Z,79.07
2023-04-18T00:04:09.777Z,79.09
2023-04-18T00:06:37.876Z,79.29
2023-04-18T00:09:05.927Z,79.27
2023-04-18T00:11:35.076Z,79.19
2023-04-18T00:14:03.475Z,79.34
2023-04-18T00:16:32.658Z,79.32
2023-04-18T00:19:02.332Z,79.37
2023-04-18T00:21:30.304Z,79.37
2023-04-18T00:23:58.241Z,79.47
2023-04-18T00:26:27.686Z,79.65
2023-04-18T00:28:55.599Z,79.59
2023-04-18T00:31:23.428Z,79.52
2023-04-18T00:33:51.350Z,79.88
2023-04-18T00:36:19.092Z,79.56
2023-04-18T00:38:46.825Z,79.68
2023-04-18T00:41:15.442Z,80.08
2023-04-18T00:43:43.175Z,79.78
2023-04-18T00:46:11.177Z,79.78
2023-04-18T00:48:39.640Z,80.45
2023-04-18T00:51:09.298Z,80.23
2023-04-18T00:53:37.600Z,80.40
2023-04-18T00:56:06.288Z,80.52
2023-04-18T00:58:34.316Z,80.33
2023-04-18T01:01:02.145Z,80.76
2023-04-18T01:03:30.276Z,80.85
2023-04-18T01:05:59.185Z,80.58
2023-04-18T01:08:28.099Z,80.91
2023-04-18T01:10:55.876Z,81.06
2023-04-18T01:13:23.779Z,80.77
2023-04-18T01:15:52.170Z,80.81
2023-04-18T01:18:20.867Z,80.99
2023-04-18T01:20:51.519Z,80.99
2023-04-18T01:23:20.450Z,80.83
2023-04-18T01:25:51.919Z,80.94
2023-04-18T01:28:24.176Z,80.94
2023-04-18T01:30:52.257Z,80.95
2023-04-18T01:33:20.090Z,81.02
2023-04-18T01:35:47.920Z,80.84
2023-04-18T01:38:15.756Z,81.01
2023-04-18T01:40:43.898Z,80.99
2023-04-18T01:43:11.745Z,80.90
2023-04-18T01:45:39.585Z,81.05
2023-04-18T01:48:07.500Z,81.10
2023-04-18T01:50:35.310Z,81.09
2023-04-18T01:53:03.126Z,81.12
2023-04-18T01:55:30.833Z,81.18
2023-04-18T01:57:58.689Z,81.05
2023-04-18T02:00:26.437Z,81.11
2023-04-18T02:02:54.658Z,81.09
2023-04-18T02:05:22.705Z,81.22
2023-04-18T02:07:50.867Z,81.04
2023-04-18T02:10:20.383Z,81.09
2023-04-18T02:12:48.265Z,81.11
2023-04-18T02:15:16.076Z,81.03
2023-04-18T02:17:44.061Z,81.04
2023-04-18T02:20:13.434Z,81.03
2023-04-18T02:22:41.274Z,80.93
2023-04-18T02:25:09.472Z,80.94
2023-04-18T02:27:37.262Z,80.76
2023-04-18T02:30:06.655Z,80.89
2023-04-18T02:32:34.469Z,80.84
2023-04-18T02:35:02.287Z,80.90
2023-04-18T02:37:30.000Z,80.80
2023-04-18T02:39:57.837Z,80.82
2023-04-18T02:42:25.569Z,80.87
2023-04-18T02:44:53.594Z,80.84
2023-04-18T02:47:21.846Z,80.86
2023-04-18T02:49:49.708Z,80.93
2023-04-18T02:52:17.486Z,80.97
2023-04-18T02:54:45.272Z,80.87
2023-04-18T02:57:13.110Z,81.01
2023-04-18T02:59:40.872Z,81.12
2023-04-18T03:02:08.656Z,81.09
2023-04-18T03:04:36.543Z,81.13
2023-04-18T03:07:04.305Z,81.07
2023-04-18T03:09:32.080Z,81.13
2023-04-18T03:11:59.889Z,81.04
2023-04-18T03:14:27.781Z,81.11
2023-04-18T03:16:55.761Z,81.13
2023-04-18T03:19:23.624Z,81.02
2023-04-18T03:21:51.365Z,81.09
2023-04-18T03:24:19.089Z,81.06
2023-04-18T03:26:47.095Z,81.08
2023-04-18T03:29:14.862Z,81.02
2023-04-18T03:31:42.816Z,81.08
2023-04-18T03:34:11.090Z,81.08
2023-04-18T03:36:38.996Z,81.16
2023-04-18T03:39:06.890Z,81.21
2023-04-18T03:41:34.619Z,81.22
2023-04-18T03:44:02.368Z,81.31
2023-04-18T03:46:30.369Z,81.34
2023-04-18T03:48:58.155Z,81.47
2023-04-18T03:51:26.255Z,81.34
2023-04-18T03:53:53.994Z,81.43
2023-04-18T03:56:21.891Z,81.36
2023-04-18T03:58:49.773Z,81.44
2023-04-18T04:01:17.590Z,81.46
2023-04-18T04:03:45.506Z,81.58
2023-04-18T04:06:13.643Z,81.66
2023-04-18T04:08:41.846Z,81.63
2023-04-18T04:11:09.557Z,81.56
2023-04-18T04:13:37.396Z,81.68
2023-04-18T04:16:07.264Z,81.55
2023-04-18T04:18:35.066Z,81.29
2023-04-18T04:21:03.906Z,81.20
2023-04-18T04:23:31.753Z,81.11
2023-04-18T04:26:03.268Z,80.53
2023-04-18T04:28:31.700Z,80.07
2023-04-18T04:30:59.531Z,79.53
2023-04-18T04:33:29.719Z,78.87
2023-04-18T04:35:57.635Z,78.22
2023-04-18T04:38:25.553Z,77.50
2023-04-18T04:40:53.357Z,76.45
2023-04-18T04:43:21.716Z,75.64
2023-04-18T04:45:51.762Z,74.71
2023-04-18T04:48:22.320Z,73.97
2023-04-18T04:50:59.461Z,72.81
2023-04-18T04:53:32.578Z,71.84
2023-04-18T04:56:00.401Z,70.75
2023-04-18T04:58:28.227Z,70.52
2023-04-18T05:00:56.679Z,70.43
2023-04-18T05:03:24.840Z,70.14
2023-04-18T05:05:53.878Z,69.03
2023-04-18T05:08:21.579Z,67.62
2023-04-18T05:10:50.297Z,66.89
2023-04-18T05:13:18.118Z,66.46
2023-04-18T05:15:46.087Z,66.95
2023-04-18T05:18:14.513Z,67.56
2023-04-18T05:20:42.277Z,68.13
2023-04-18T05:23:10.097Z,68.94
2023-04-18T05:25:37.918Z,69.93
2023-04-18T05:28:05.764Z,70.83
2023-04-18T05:30:33.597Z,71.77
2023-04-18T05:33:01.395Z,72.98
2023-04-18T05:35:29.315Z,73.57
2023-04-18T05:37:58.852Z,74.20
2023-04-18T05:40:27.576Z,74.54
2023-04-18T05:42:55.417Z,74.75
2023-04-18T05:45:23.224Z,75.34
2023-04-18T05:47:51.265Z,75.65
2023-04-18T05:50:19.128Z,75.72
2023-04-18T05:52:46.920Z,75.67
2023-04-18T05:55:14.657Z,75.71
2023-04-18T05:57:42.429Z,75.60
2023-04-18T06:00:11.993Z,75.56
2023-04-18T06:02:39.917Z,75.53
2023-04-18T06:05:08.765Z,75.39
2023-04-18T06:07:36.772Z,75.66
2023-04-18T06:10:09.277Z,75.79
2023-04-18T06:12:37.288Z,75.93
2023-04-18T06:15:06.600Z,76.38
2023-04-18T06:17:35.136Z,76.27
2023-04-18T06:20:06.302Z,75.89
2023-04-18T06:22:34.213Z,75.09
2023-04-18T06:25:02.116Z,74.12
2023-04-18T06:27:31.864Z,73.90
2023-04-18T06:30:00.237Z,74.01
2023-04-18T06:32:28.386Z,73.93
2023-04-18T06:34:56.277Z,74.02
2023-04-18T06:37:24.550Z,73.73
2023-04-18T06:39:52.353Z,73.43
2023-04-18T06:42:22.200Z,73.47
2023-04-18T06:44:50.829Z,73.26
2023-04-18T06:47:18.883Z,73.40
2023-04-18T06:49:46.835Z,73.22
2023-04-18T06:52:14.626Z,73.10
2023-04-18T06:54:42.420Z,73.63
2023-04-18T06:57:10.730Z,73.94
2023-04-18T06:59:38.642Z,73.88
2023-04-18T07:02:06.428Z,73.60
2023-04-18T07:04:34.837Z,73.17
2023-04-18T07:07:05.239Z,73.53
2023-04-18T07:09:33.131Z,74.00
2023-04-18T07:12:01.085Z,73.73
2023-04-18T07:14:28.965Z,73.50
2023-04-18T07:16:57.781Z,73.41
2023-04-18T07:19:25.710Z,72.62
2023-04-18T07:21:54.978Z,72.66
2023-04-18T07:24:23.808Z,72.59
2023-04-18T07:26:54.814Z,72.59
2023-04-18T07:29:23.006Z,72.51
2023-04-18T07:31:51.049Z,73.02
2023-04-18T07:34:24.267Z,72.89
2023-04-18T07:36:52.062Z,72.03
2023-04-18T07:39:36.109Z,72.14
2023-04-18T07:42:04.977Z,72.08
2023-04-18T07:44:36.328Z,71.82
2023-04-18T07:47:11.918Z,71.31
2023-04-18T07:49:39.811Z,70.95
2023-04-18T07:52:07.743Z,71.43
2023-04-18T07:54:35.527Z,71.57
2023-04-18T07:57:03.362Z,71.97
2023-04-18T07:59:32.358Z,72.01
2023-04-18T08:02:00.231Z,71.66
2023-04-18T08:04:30.411Z,71.43
2023-04-18T08:06:58.661Z,71.38
2023-04-18T08:09:26.501Z,71.16
2023-04-18T08:11:56.223Z,71.38
2023-04-18T08:14:24.046Z,71.37
2023-04-18T08:16:52.226Z,71.65
2023-04-18T08:19:24.005Z,71.90
2023-04-18T08:21:52.254Z,71.89
2023-04-18T08:24:20.225Z,70.76
2023-04-18T08:26:49.683Z,70.86
2023-04-18T08:29:18.074Z,70.07
2023-04-18T08:31:46.070Z,70.20
2023-04-18T08:34:13.892Z,70.03
2023-04-18T08:36:41.662Z,69.77
2023-04-18T08:39:09.687Z,68.90
2023-04-18T08:41:38.209Z,69.45
2023-04-18T08:44:06.813Z,68.50
2023-04-18T08:46:36.103Z,68.47
2023-04-18T08:49:05.151Z,68.32
2023-04-18T08:51:33.420Z,67.64
2023-04-18T08:54:04.439Z,66.03
2023-04-18T08:56:32.595Z,66.33
2023-04-18T08:59:00.559Z,67.22
2023-04-18T09:01:58.919Z,67.31
2023-04-18T09:04:45.157Z,67.15
2023-04-18T09:07:17.184Z,67.04
2023-04-18T09:09:52.990Z,65.88
2023-04-18T09:12:26.723Z,66.25
2023-04-18T09:15:16.712Z,66.35
2023-04-18T09:17:51.103Z,66.24
2023-04-18T09:20:42.362Z,66.48
2023-04-18T09:23:14.904Z,66.99
2023-04-18T09:25:49.347Z,67.58
2023-04-18T09:28:30.422Z,66.99
2023-04-18T09:31:15.663Z,66.80
2023-04-18T09:33:56.965Z,66.18
2023-04-18T09:36:28.096Z,65.75
2023-04-18T09:38:57.259Z,65.03
2023-04-18T09:41:30.535Z,64.55
2023-04-18T09:44:14.655Z,65.11
2023-04-18T09:46:47.129Z,65.34
2023-04-18T09:49:17.816Z,65.56
2023-04-18T09:51:47.013Z,65.97
2023-04-18T09:54:16.659Z,65.81
2023-04-18T09:56:47.128Z,65.74
2023-04-18T09:59:29.065Z,65.86
2023-04-18T10:01:59.752Z,65.42
2023-04-18T10:04:29.018Z,65.22
2023-04-18T10:06:57.147Z,65.11
2023-04-18T10:09:25.143Z,65.49
2023-04-18T10:11:54.931Z,65.57
2023-04-18T10:14:23.617Z,65.71
2023-04-18T10:16:51.913Z,65.97
2023-04-18T10:19:28.690Z,66.34
2023-04-18T10:22:00.483Z,67.13
2023-04-18T10:24:53.924Z,67.39
2023-04-18T10:27:49.866Z,67.39
2023-04-18T10:30:18.983Z,67.30
2023-04-18T10:32:46.874Z,67.16
2023-04-18T10:35:14.889Z,67.02
2023-04-18T10:37:58.882Z,67.12
2023-04-18T10:40:34.860Z,67.36
2023-04-18T10:43:02.732Z,67.46
2023-04-18T10:45:36.450Z,67.79
2023-04-18T10:48:27.790Z,68.24
2023-04-18T10:51:19.951Z,68.44
2023-04-18T10:53:57.716Z,68.39
2023-04-18T10:56:28.144Z,67.20
2023-04-18T10:59:02.116Z,67.49
2023-04-18T11:01:33.279Z,67.48
2023-04-18T11:04:01.611Z,67.76
2023-04-18T11:06:31.318Z,68.19
2023-04-18T11:09:13.819Z,68.23
2023-04-18T11:11:43.667Z,68.09
2023-04-18T11:14:11.707Z,67.60
2023-04-18T11:16:40.256Z,66.13
2023-04-18T11:19:23.758Z,65.79
2023-04-18T11:21:51.855Z,66.19
2023-04-18T11:24:24.647Z,66.60
2023-04-18T11:26:55.872Z,66.72
2023-04-18T11:29:24.076Z,66.29
2023-04-18T11:31:55.993Z,66.29
2023-04-18T11:34:36.076Z,66.08
2023-04-18T11:37:08.170Z,65.37
2023-04-18T11:39:43.380Z,64.79
2023-04-18T11:42:11.540Z,64.00
2023-04-18T11:44:44.065Z,64.39
2023-04-18T11:47:34.085Z,64.76
2023-04-18T11:50:07.872Z,66.26
2023-04-18T11:52:37.262Z,66.85
2023-04-18T11:55:27.403Z,66.76
2023-04-18T11:57:58.719Z,66.11
2023-04-18T12:00:36.032Z,66.28
2023-04-18T12:03:11.875Z,65.42
2023-04-18T12:05:45.481Z,65.40
2023-04-18T12:08:22.376Z,66.25
2023-04-18T12:10:52.536Z,66.25
2023-04-18T12:13:29.311Z,66.39
2023-04-18T12:15:57.329Z,66.41
2023-04-18T12:18:25.444Z,66.08
2023-04-18T12:20:56.914Z,66.33
2023-04-18T12:23:33.912Z,66.56
2023-04-18T12:26:04.744Z,67.16
2023-04-18T12:28:34.442Z,67.53
2023-04-18T12:31:05.544Z,67.56
2023-04-18T12:33:35.929Z,67.00
2023-04-18T12:36:08.704Z,66.75
2023-04-18T12:38:36.929Z,66.02
2023-04-18T12:41:05.595Z,65.71
2023-04-18T12:43:33.491Z,65.83
2023-04-18T12:46:01.736Z,65.61
2023-04-18T12:48:29.645Z,65.95
2023-04-18T12:50:57.411Z,66.47
2023-04-18T12:53:25.808Z,66.80
2023-04-18T12:55:53.657Z,67.23
2023-04-18T12:58:21.710Z,67.32
2023-04-18T13:00:49.513Z,67.49
2023-04-18T13:03:17.471Z,67.44
2023-04-18T13:05:46.328Z,67.13
2023-04-18T13:08:17.672Z,67.41
2023-04-18T13:10:47.776Z,66.95
2023-04-18T13:13:15.662Z,66.88
2023-04-18T13:15:43.646Z,67.59
2023-04-18T13:18:11.461Z,68.11
2023-04-18T13:20:39.305Z,68.55
2023-04-18T13:23:07.312Z,68.93
2023-04-18T13:25:35.155Z,68.76
2023-04-18T13:28:02.995Z,68.23
2023-04-18T13:30:31.993Z,68.05
2023-04-18T13:32:59.883Z,67.98
2023-04-18T13:35:27.692Z,67.17
2023-04-18T13:37:56.178Z,66.87
2023-04-18T13:40:24.386Z,66.89
2023-04-18T13:42:52.150Z,67.71
2023-04-18T13:45:20.697Z,68.11
2023-04-18T13:47:48.615Z,69.15
2023-04-18T13:50:16.460Z,69.42
2023-04-18T13:52:44.273Z,69.48
2023-04-18T13:55:12.828Z,69.31
2023-04-18T13:57:41.526Z,69.27
2023-04-18T14:00:11.256Z,69.29
2023-04-18T14:02:39.249Z,69.29
2023-04-18T14:05:08.146Z,69.27
2023-04-18T14:07:36.630Z,69.39
2023-04-18T14:10:05.190Z,69.48
2023-04-18T14:12:33.055Z,69.65
2023-04-18T14:15:00.961Z,69.93
2023-04-18T14:17:28.862Z,70.66
2023-04-18T14:19:56.735Z,70.53
2023-04-18T14:22:24.579Z,70.53
2023-04-18T14:24:54.639Z,70.49
2023-04-18T14:27:22.587Z,70.55
2023-04-18T14:29:50.962Z,70.49
2023-04-18T14:32:18.967Z,70.35
2023-04-18T14:34:46.817Z,70.52
2023-04-18T14:37:15.686Z,70.78
2023-04-18T14:39:44.369Z,70.52
2023-04-18T14:42:12.270Z,70.34
2023-04-18T14:44:40.370Z,70.22
2023-04-18T14:47:08.207Z,70.21
2023-04-18T14:49:35.980Z,70.12
2023-04-18T14:52:04.165Z,69.91
2023-04-18T14:54:32.753Z,70.11
2023-04-18T14:57:01.595Z,70.32
2023-04-18T14:59:29.517Z,70.39
2023-04-18T15:01:57.340Z,70.78
2023-04-18T15:04:25.503Z,70.93
2023-04-18T15:06:53.466Z,70.92
2023-04-18T15:09:21.386Z,70.72
2023-04-18T15:11:49.186Z,70.76
2023-04-18T15:14:17.252Z,70.67
2023-04-18T15:16:45.312Z,70.72
2023-04-18T15:19:13.129Z,70.74
2023-04-18T15:21:40.938Z,70.44
2023-04-18T15:24:09.023Z,69.37
2023-04-18T15:26:37.137Z,68.60
2023-04-18T15:29:05.140Z,67.67
2023-04-18T15:31:33.378Z,66.70
2023-04-18T15:34:08.314Z,66.29
2023-04-18T15:36:36.417Z,65.91
2023-04-18T15:39:05.946Z,64.53
2023-04-18T15:41:37.305Z,65.06
2023-04-18T15:44:07.219Z,62.95
2023-04-18T15:46:36.742Z,63.66
2023-04-18T15:49:05.273Z,63.34
2023-04-18T15:51:33.045Z,62.86
2023-04-18T15:54:00.995Z,59.82
2023-04-18T15:56:29.377Z,60.33
2023-04-18T15:59:00.313Z,59.24
2023-04-18T16:01:28.406Z,57.17
2023-04-18T16:03:56.386Z,56.54
2023-04-18T16:06:24.364Z,56.64
2023-04-18T16:08:52.244Z,56.77
2023-04-18T16:11:21.686Z,58.11
2023-04-18T16:13:49.767Z,57.90
2023-04-18T16:16:17.632Z,58.28
2023-04-18T16:18:45.829Z,58.66
2023-04-18T16:21:15.323Z,58.78
2023-04-18T16:23:43.418Z,58.70
2023-04-18T16:26:11.320Z,59.59
2023-04-18T16:28:39.405Z,61.00
2023-04-18T16:31:07.213Z,62.21
2023-04-18T16:33:35.190Z,63.51
2023-04-18T16:36:03.356Z,63.78
2023-04-18T16:38:31.378Z,63.72
2023-04-18T16:41:01.730Z,64.38
2023-04-18T16:43:36.571Z,64.03
2023-04-18T16:46:04.787Z,63.54
2023-04-18T16:48:32.772Z,63.44
2023-04-18T16:51:00.745Z,63.72
2023-04-18T16:53:28.564Z,63.67
2023-04-18T16:55:56.759Z,63.87
2023-04-18T16:58:24.788Z,64.02
2023-04-18T17:00:52.990Z,63.66
2023-04-18T17:03:24.154Z,63.77
2023-04-18T17:06:00.482Z,63.62
2023-04-18T17:08:29.332Z,63.30
2023-04-18T17:10:57.474Z,62.91
2023-04-18T17:13:27.277Z,62.65
2023-04-18T17:15:55.186Z,62.78
2023-04-18T17:18:23.445Z,63.12
2023-04-18T17:20:51.427Z,63.35
2023-04-18T17:23:19.426Z,63.67
2023-04-18T17:25:47.733Z,64.02
2023-04-18T17:28:15.728Z,64.39
2023-04-18T17:30:43.995Z,65.18
2023-04-18T17:33:11.960Z,65.66
2023-04-18T17:35:42.647Z,65.83
2023-04-18T17:38:10.978Z,66.43
2023-04-18T17:40:39.781Z,66.70
2023-04-18T17:43:07.807Z,67.31
2023-04-18T17:45:35.808Z,67.60
2023-04-18T17:48:04.300Z,68.04
2023-04-18T17:50:32.625Z,68.42
2023-04-18T17:53:01.053Z,68.22
2023-04-18T17:55:28.883Z,68.55
2023-04-18T17:57:57.575Z,68.48
2023-04-18T18:00:25.798Z,68.48
2023-04-18T18:02:54.076Z,68.38
2023-04-18T18:05:22.108Z,68.42
2023-04-18T18:07:51.732Z,68.49
2023-04-18T18:10:20.195Z,68.33
2023-04-18T18:12:48.010Z,68.65
2023-04-18T18:15:16.009Z,68.32
2023-04-18T18:17:43.890Z,68.00
2023-04-18T18:20:12.008Z,67.80
2023-04-18T18:22:39.863Z,67.60
2023-04-18T18:25:08.696Z,67.30
2023-04-18T18:27:37.698Z,67.34
2023-04-18T18:30:07.050Z,67.17
2023-04-18T18:32:35.235Z,66.55
2023-04-18T18:35:04.342Z,66.79
2023-04-18T18:37:33.114Z,66.77
2023-04-18T18:40:05.047Z,66.38
2023-04-18T18:42:33.103Z,66.29
2023-04-18T18:45:01.811Z,66.34
2023-04-18T18:47:30.825Z,66.07
2023-04-18T18:49:58.713Z,65.92
2023-04-18T18:52:29.905Z,65.97
2023-04-18T18:54:57.936Z,66.03
2023-04-18T18:57:26.274Z,66.05
2023-04-18T18:59:55.850Z,65.87
2023-04-18T19:02:24.372Z,65.87
2023-04-18T19:04:52.668Z,65.75
2023-04-18T19:07:23.896Z,65.57
2023-04-18T19:09:53.501Z,65.40
2023-04-18T19:12:21.773Z,65.33
2023-04-18T19:14:50.264Z,65.45
2023-04-18T19:17:20.542Z,65.47
2023-04-18T19:19:48.379Z,65.47
2023-04-18T19:22:16.991Z,65.23
2023-04-18T19:24:45.091Z,64.85
2023-04-18T19:27:13.337Z,64.87
2023-04-18T19:29:41.547Z,64.83
2023-04-18T19:32:10.201Z,65.51
2023-04-18T19:34:38.570Z,65.13
2023-04-18T19:37:06.744Z,64.84
2023-04-18T19:39:34.764Z,65.01
2023-04-18T19:42:04.038Z,65.06
2023-04-18T19:44:32.512Z,65.12
2023-04-18T19:47:00.484Z,65.11
2023-04-18T19:49:28.365Z,65.15
2023-04-18T19:51:56.236Z,65.34
2023-04-18T19:54:24.089Z,65.44
2023-04-18T19:56:53.957Z,65.43
2023-04-18T19:59:24.978Z,65.62
2023-04-18T20:01:52.853Z,65.81
2023-04-18T20:04:22.271Z,65.85
2023-04-18T20:06:50.382Z,65.90
2023-04-18T20:09:18.237Z,66.12
2023-04-18T20:11:48.284Z,66.30
2023-04-18T20:14:16.143Z,66.37
2023-04-18T20:16:45.930Z,66.55
2023-04-18T20:19:14.875Z,66.58
2023-04-18T20:21:43.030Z,66.64
2023-04-18T20:24:10.857Z,66.64
2023-04-18T20:26:38.684Z,66.48
2023-04-18T20:29:09.216Z,66.54
2023-04-18T20:31:41.873Z,66.48
2023-04-18T20:34:10.048Z,66.46
2023-04-18T20:36:41.827Z,66.51
2023-04-18T20:39:17.639Z,66.52
2023-04-18T20:41:56.380Z,66.46
2023-04-18T20:44:31.277Z,66.59
2023-04-18T20:46:59.110Z,66.61
2023-04-18T20:49:27.956Z,66.56
2023-04-18T20:51:55.864Z,66.61
2023-04-18T20:54:23.938Z,66.63
2023-04-18T20:56:51.799Z,66.61
2023-04-18T20:59:19.506Z,66.57
2023-04-18T21:01:48.812Z,66.57
2023-04-18T21:04:16.776Z,66.61
2023-04-18T21:06:44.949Z,66.74
2023-04-18T21:09:12.796Z,66.83
2023-04-18T21:11:40.780Z,66.82
2023-04-18T21:14:08.618Z,67.01
2023-04-18T21:16:39.446Z,67.01
2023-04-18T21:19:07.525Z,67.10
2023-04-18T21:21:35.656Z,67.15
2023-04-18T21:24:04.258Z,67.23
2023-04-18T21:26:32.000Z,67.33
2023-04-18T21:29:04.164Z,67.44
2023-04-18T21:31:33.853Z,67.43
2023-04-18T21:34:05.048Z,67.57
2023-04-18T21:36:33.189Z,67.66
2023-04-18T21:39:01.359Z,67.78
2023-04-18T21:41:29.340Z,67.92
2023-04-18T21:43:57.161Z,67.96
2023-04-18T21:46:25.057Z,68.12
2023-04-18T21:48:52.844Z,68.17
2023-04-18T21:51:20.731Z,68.40
2023-04-18T21:53:48.469Z,68.35
2023-04-18T21:56:16.999Z,68.44
2023-04-18T21:58:44.822Z,68.45
2023-04-18T22:01:12.644Z,68.80
2023-04-18T22:03:40.599Z,69.18
2023-04-18T22:06:08.654Z,69.42
2023-04-18T22:08:36.789Z,69.26
2023-04-18T22:11:05.084Z,69.33
2023-04-18T22:13:33.268Z,69.47
2023-04-18T22:16:04.932Z,69.48
2023-04-18T22:18:34.091Z,69.59
2023-04-18T22:21:03.473Z,69.89
2023-04-18T22:23:31.464Z,70.03
2023-04-18T22:25:59.315Z,70.23
2023-04-18T22:28:30.885Z,70.36
2023-04-18T22:30:58.680Z,70.46
2023-04-18T22:33:26.704Z,70.57
2023-04-18T22:35:55.758Z,70.43
2023-04-18T22:38:25.308Z,70.79
2023-04-18T22:40:53.190Z,70.98
2023-04-18T22:43:23.695Z,70.79
2023-04-18T22:45:51.737Z,70.71
2023-04-18T22:48:19.720Z,70.85
2023-04-18T22:50:47.565Z,71.29
2023-04-18T22:53:16.286Z,71.22
2023-04-18T22:55:45.831Z,71.67
2023-04-18T22:58:14.455Z,71.36
2023-04-18T23:00:42.544Z,71.39
2023-04-18T23:03:10.666Z,71.70
2023-04-18T23:05:38.670Z,71.84
2023-04-18T23:08:07.079Z,72.01
2023-04-18T23:10:35.144Z,72.02
2023-04-18T23:13:02.900Z,72.07
2023-04-18T23:15:30.767Z,72.68
2023-04-18T23:17:58.606Z,72.30
2023-04-18T23:20:26.429Z,72.21
2023-04-18T23:22:55.555Z,72.15
2023-04-18T23:25:23.327Z,72.03
2023-04-18T23:27:51.189Z,72.27
2023-04-18T23:30:19.023Z,72.24
2023-04-18T23:32:50.200Z,71.94
2023-04-18T23:35:18.113Z,71.89
2023-04-18T23:37:46.221Z,71.76
2023-04-18T23:40:13.956Z,71.78
2023-04-18T23:42:42.170Z,71.65
2023-04-18T23:45:10.963Z,71.46
2023-04-18T23:47:38.768Z,71.21
2023-04-18T23:50:07.895Z,70.96
2023-04-18T23:52:35.728Z,71.40
2023-04-18T23:55:03.736Z,72.21
2023-04-18T23:57:31.557Z,72.55
2023-04-18T23:59:59.234Z,72.66
